createdAt,value
2023-06-11T00:03:54.539Z,95.26
2023-06-11T00:08:56.831Z,95.14
2023-06-11T00:13:58.578Z,95.28
2023-06-11T00:19:00.336Z,94.79
2023-06-11T00:24:02.842Z,94.42
2023-06-11T00:29:04.842Z,94.46
2023-06-11T00:34:06.840Z,94.75
2023-06-11T00:39:08.697Z,94.93
2023-06-11T00:44:10.547Z,95.33
2023-06-11T00:49:12.895Z,95.12
2023-06-11T00:54:17.670Z,94.86
2023-06-11T00:59:21.060Z,94.27
2023-06-11T01:04:24.832Z,94.51
2023-06-11T01:09:28.811Z,94.33
2023-06-11T01:14:33.553Z,93.54
2023-06-11T01:19:38.533Z,94.25
2023-06-11T01:25:09.996Z,95.83
2023-06-11T01:30:21.821Z,97.63
2023-06-11T01:35:25.651Z,98.28
2023-06-11T01:40:28.724Z,99.42
2023-06-11T01:45:34.021Z,99.69
2023-06-11T01:50:36.413Z,99.69
2023-06-11T01:55:38.256Z,99.91
2023-06-11T02:00:40.132Z,99.99
2023-06-11T02:05:41.830Z,100.00
2023-06-11T02:10:46.581Z,100.00
2023-06-11T02:15:48.310Z,100.00
2023-06-11T02:20:50.540Z,100.00
2023-06-11T02:25:54.513Z,100.00
2023-06-11T02:30:56.253Z,100.00
2023-06-11T02:35:58.055Z,100.00
2023-06-11T02:40:59.834Z,100.00
2023-06-11T02:46:01.734Z,100.00
2023-06-11T02:51:03.530Z,100.00
2023-06-11T02:56:05.433Z,100.00
2023-06-11T03:01:07.197Z,100.00
2023-06-11T03:06:09.788Z,100.00
2023-06-11T03:11:11.884Z,99.96
2023-06-11T03:16:18.899Z,98.90
2023-06-11T03:21:20.979Z,96.70
2023-06-11T03:26:23.220Z,94.86
2023-06-11T03:31:25.395Z,92.34
2023-06-11T03:36:27.522Z,90.60
2023-06-11T03:41:30.108Z,88.99
2023-06-11T03:46:32.656Z,86.29
2023-06-11T03:51:35.317Z,87.17
2023-06-11T03:56:38.035Z,90.55
2023-06-11T04:07:13.671Z,94.26
2023-06-11T04:12:16.024Z,94.86
2023-06-11T04:17:19.048Z,95.11
2023-06-11T04:22:22.050Z,94.96
2023-06-11T04:27:24.140Z,94.40
2023-06-11T04:32:28.057Z,93.90
2023-06-11T04:37:32.076Z,93.23
2023-06-11T04:42:35.989Z,91.76
2023-06-11T04:47:38.772Z,89.55
2023-06-11T04:52:44.040Z,87.70
2023-06-11T04:57:47.535Z,86.99
2023-06-11T05:02:50.951Z,86.01
2023-06-11T05:07:52.961Z,83.82
2023-06-11T05:12:55.522Z,82.31
2023-06-11T05:17:59.255Z,81.18
2023-06-11T05:23:03.871Z,79.30
2023-06-11T05:28:08.846Z,79.07
2023-06-11T05:33:11.716Z,79.28
2023-06-11T05:38:14.538Z,78.42
2023-06-11T05:43:17.826Z,78.15
2023-06-11T05:48:20.036Z,76.67
2023-06-11T05:53:23.083Z,76.94
2023-06-11T05:58:25.331Z,76.13
2023-06-11T06:03:27.409Z,74.63
2023-06-11T06:08:30.900Z,75.05
2023-06-11T06:13:33.408Z,73.37
2023-06-11T06:18:40.087Z,71.58
2023-06-11T06:23:42.056Z,69.88
2023-06-11T06:28:45.593Z,69.08
2023-06-11T06:33:48.215Z,66.66
2023-06-11T06:38:50.628Z,65.79
2023-06-11T06:43:53.913Z,63.81
2023-06-11T06:48:58.083Z,63.13
2023-06-11T06:54:01.036Z,63.02
2023-06-11T06:59:02.927Z,62.25
2023-06-11T07:04:06.068Z,61.95
2023-06-11T07:09:08.055Z,61.06
2023-06-11T07:14:10.157Z,60.22
2023-06-11T07:19:12.161Z,60.27
2023-06-11T07:24:14.500Z,59.64
2023-06-11T07:29:16.551Z,58.89
2023-06-11T07:34:20.757Z,57.26
2023-06-11T07:39:23.272Z,56.65
2023-06-11T07:44:26.125Z,56.40
2023-06-11T07:49:28.057Z,56.22
2023-06-11T07:54:30.656Z,55.95
2023-06-11T07:59:32.322Z,55.34
2023-06-11T08:04:34.385Z,55.10
2023-06-11T08:09:37.537Z,54.34
2023-06-11T08:14:39.302Z,53.96
2023-06-11T08:19:41.031Z,54.82
2023-06-11T08:24:42.696Z,54.24
2023-06-11T08:29:44.351Z,54.90
2023-06-11T08:34:46.122Z,54.40
2023-06-11T08:39:47.834Z,55.09
2023-06-11T08:44:49.954Z,55.79
2023-06-11T08:49:52.670Z,55.99
2023-06-11T08:54:55.049Z,54.59
2023-06-11T08:59:57.251Z,52.21
2023-06-11T09:04:59.353Z,49.89
2023-06-11T09:10:08.290Z,49.24
2023-06-11T09:15:10.865Z,50.26
2023-06-11T09:20:14.605Z,51.67
2023-06-11T09:25:19.773Z,47.85
2023-06-11T09:30:21.840Z,46.06
2023-06-11T09:35:23.840Z,43.80
2023-06-11T09:40:25.740Z,44.38
2023-06-11T09:45:27.989Z,43.62
2023-06-11T09:50:33.510Z,43.90
2023-06-11T09:55:38.502Z,44.53
2023-06-11T10:00:40.888Z,44.60
2023-06-11T10:05:43.199Z,45.62
2023-06-11T10:10:47.030Z,45.92
2023-06-11T10:15:49.681Z,45.26
2023-06-11T10:20:55.980Z,45.12
2023-06-11T10:25:59.118Z,46.40
2023-06-11T10:31:01.099Z,45.45
2023-06-11T10:36:03.227Z,43.76
2023-06-11T10:41:06.018Z,41.30
2023-06-11T10:46:13.556Z,39.64
2023-06-11T10:51:15.536Z,39.00
2023-06-11T10:56:22.341Z,39.73
2023-06-11T11:01:24.284Z,39.02
2023-06-11T11:06:28.120Z,37.54
2023-06-11T11:11:30.241Z,36.85
2023-06-11T11:16:32.117Z,37.03
2023-06-11T11:21:33.944Z,40.15
2023-06-11T11:26:42.825Z,40.24
2023-06-11T11:31:46.280Z,40.39
2023-06-11T11:36:48.116Z,39.48
2023-06-11T11:41:51.392Z,38.37
2023-06-11T11:46:57.480Z,37.54
2023-06-11T11:52:02.040Z,37.97
2023-06-11T11:57:07.980Z,38.18
2023-06-11T12:02:10.455Z,38.14
2023-06-11T12:07:14.604Z,38.49
2023-06-11T12:12:16.520Z,39.73
2023-06-11T12:17:18.285Z,38.34
2023-06-11T12:22:20.793Z,38.77
2023-06-11T12:27:24.210Z,38.53
2023-06-11T12:32:26.509Z,35.49
2023-06-11T12:37:29.273Z,35.30
2023-06-11T12:42:33.475Z,35.31
2023-06-11T12:47:36.104Z,35.08
2023-06-11T12:52:40.485Z,35.81
2023-06-11T12:57:42.339Z,37.62
2023-06-11T13:02:45.353Z,38.21
2023-06-11T13:07:48.465Z,36.39
2023-06-11T13:12:52.829Z,34.28
2023-06-11T13:17:54.645Z,36.76
2023-06-11T13:22:56.455Z,36.71
2023-06-11T13:27:58.260Z,35.96
2023-06-11T13:33:01.646Z,34.22
2023-06-11T13:38:03.388Z,33.52
2023-06-11T13:43:05.180Z,35.05
2023-06-11T13:48:14.773Z,37.77
2023-06-11T13:53:17.934Z,36.75
2023-06-11T13:58:22.158Z,34.03
2023-06-11T14:03:23.899Z,32.84
2023-06-11T14:08:25.611Z,34.41
2023-06-11T14:13:27.460Z,32.49
2023-06-11T14:18:29.206Z,32.20
2023-06-11T14:23:30.899Z,31.28
2023-06-11T14:28:32.779Z,31.69
2023-06-11T14:33:34.478Z,31.66
2023-06-11T14:38:36.235Z,31.51
2023-06-11T14:43:37.937Z,33.34
2023-06-11T14:48:39.624Z,33.64
2023-06-11T14:53:41.368Z,32.34
2023-06-11T14:58:47.624Z,33.00
2023-06-11T15:03:49.405Z,34.18
2023-06-11T15:08:51.698Z,32.86
2023-06-11T15:13:53.465Z,31.09
2023-06-11T15:18:56.142Z,31.49
2023-06-11T15:23:58.063Z,30.93
2023-06-11T15:29:00.191Z,31.33
2023-06-11T15:34:01.981Z,31.68
2023-06-11T15:39:03.878Z,31.31
2023-06-11T15:44:05.791Z,31.02
2023-06-11T15:49:07.482Z,30.99
2023-06-11T15:54:09.465Z,31.48
2023-06-11T15:59:11.295Z,32.27
2023-06-11T16:04:14.284Z,33.90
2023-06-11T16:09:16.573Z,35.71
2023-06-11T16:14:20.101Z,35.14
2023-06-11T16:19:21.940Z,34.10
2023-06-11T16:24:23.690Z,34.37
2023-06-11T16:29:25.458Z,34.03
2023-06-11T16:34:27.191Z,33.09
2023-06-11T16:39:38.558Z,33.43
2023-06-11T16:44:40.441Z,33.10
2023-06-11T16:49:42.254Z,33.17
2023-06-11T16:54:44.148Z,32.80
2023-06-11T16:59:45.944Z,33.33
2023-06-11T17:04:47.691Z,32.48
2023-06-11T17:09:49.558Z,33.35
2023-06-11T17:14:54.284Z,34.08
2023-06-11T17:19:56.305Z,35.46
2023-06-11T17:24:58.317Z,35.51
2023-06-11T17:30:00.022Z,35.40
2023-06-11T17:35:03.936Z,35.77
2023-06-11T17:40:07.621Z,36.18
2023-06-11T17:45:12.492Z,36.27
2023-06-11T17:50:14.461Z,36.49
2023-06-11T17:55:16.751Z,36.45
2023-06-11T18:00:18.923Z,36.90
2023-06-11T18:05:20.804Z,37.48
2023-06-11T18:10:22.784Z,38.23
2023-06-11T18:15:33.177Z,38.81
2023-06-11T18:20:37.051Z,39.65
2023-06-11T18:25:38.791Z,40.19
2023-06-11T18:30:40.799Z,41.25
2023-06-11T18:35:42.825Z,42.50
2023-06-11T18:40:44.527Z,44.12
2023-06-11T18:45:46.218Z,45.27
2023-06-11T18:50:48.060Z,46.72
2023-06-11T18:55:50.056Z,48.05
2023-06-11T19:00:51.947Z,50.65
2023-06-11T19:05:53.741Z,52.41
2023-06-11T19:10:55.633Z,53.45
2023-06-11T19:15:57.874Z,54.17
2023-06-11T19:20:59.556Z,55.43
2023-06-11T19:26:01.352Z,56.73
2023-06-11T19:31:03.110Z,57.91
2023-06-11T19:36:05.392Z,58.71
2023-06-11T19:41:07.207Z,60.00
2023-06-11T19:46:08.990Z,60.45
2023-06-11T19:51:12.173Z,60.95
2023-06-11T19:56:18.070Z,61.63
2023-06-11T20:01:21.248Z,62.32
2023-06-11T20:06:23.047Z,62.96
2023-06-11T20:11:24.796Z,63.56
2023-06-11T20:16:27.526Z,64.71
2023-06-11T20:21:29.429Z,64.87
2023-06-11T20:26:31.671Z,65.63
2023-06-11T20:31:34.629Z,65.79
2023-06-11T20:36:36.773Z,66.02
2023-06-11T20:41:38.598Z,66.52
2023-06-11T20:46:40.759Z,66.99
2023-06-11T20:51:42.520Z,67.56
2023-06-11T20:56:44.250Z,69.23
2023-06-11T21:01:46.196Z,70.21
2023-06-11T21:06:47.967Z,71.07
2023-06-11T21:11:50.084Z,71.69
2023-06-11T21:16:52.337Z,72.62
2023-06-11T21:21:54.147Z,73.23
2023-06-11T21:26:55.905Z,73.82
2023-06-11T21:31:57.751Z,73.89
2023-06-11T21:36:59.643Z,73.64
2023-06-11T21:42:01.422Z,73.65
2023-06-11T21:47:03.494Z,73.65
2023-06-11T21:52:06.876Z,73.69
2023-06-11T21:57:09.764Z,74.81
2023-06-11T22:02:12.479Z,74.79
2023-06-11T22:07:14.203Z,74.65
2023-06-11T22:12:16.020Z,74.66
2023-06-11T22:17:18.402Z,75.13
2023-06-11T22:22:20.513Z,75.29
2023-06-11T22:27:23.006Z,75.74
2023-06-11T22:32:24.757Z,76.00
2023-06-11T22:37:26.459Z,77.29
2023-06-11T22:42:28.158Z,78.16
2023-06-11T22:47:30.273Z,79.01
2023-06-11T22:52:39.692Z,79.91
2023-06-11T22:57:42.124Z,79.99
2023-06-11T23:02:45.606Z,80.29
2023-06-11T23:07:47.658Z,81.04
2023-06-11T23:12:49.931Z,81.65
2023-06-11T23:17:54.844Z,81.92
2023-06-11T23:22:57.451Z,82.18
2023-06-11T23:28:00.006Z,82.51
2023-06-11T23:33:03.536Z,83.19
2023-06-11T23:38:07.244Z,84.17
2023-06-11T23:43:08.991Z,84.73
2023-06-11T23:48:10.761Z,85.04
2023-06-11T23:53:13.798Z,84.65
2023-06-11T23:58:22.318Z,85.03
